Sea Raven — WCY8374 — position and weather

sailwx.info

Track history (hours):
 
Tides and Currents Weather Stations Pressure Air Temp Water Temp Dewpoint Dewpoint Depression Visibility Wind Speed Wind Dir Waves Ship Positions

Sea Raven

More information available from US FCC via Universal Licensing System and Coast Guard Vessel Documentation Center.

Last reported at 2013-Nov-30 19:14 UTC. Time now 2014-Jul-28 18:34 UTC.
Position N 25°37' W 080°02'.
Warning: this ship's position is months out of date.

Length 169 m; draft 6.7 m.

Type: Ship (hazmat cat C). MMSI: 366760320.

Date/timePositionNaut miles runAvg speedWind from/ knotsBaromVisibWave heightAir tempDewpointWater temp
2013-Nov-30 19:14N 25°37' W 080°02'5 7.7
2013-Nov-30 18:33N 25°43' W 080°03'9 8.6
2013-Nov-30 17:34N 25°51' W 080°03'9 9.1
2013-Nov-30 16:33N 26°00' W 080°02'10 9.9
2013-Nov-30 15:33N 26°10' W 080°02'1010.4
2013-Nov-30 14:33N 26°21' W 080°02'9 9.2
2013-Nov-30 13:33N 26°30' W 080°01'9 8.7
2013-Nov-30 12:31N 26°39' W 079°59'  
2013-Nov-24 13:19N 32°04' W 080°58'4 0.3
2013-Nov-23 23:33N 32°05' W 081°03'  
Track history (hours):
 
Tides and Currents Weather Stations Pressure Air Temp Water Temp Dewpoint Dewpoint Depression Visibility Wind Speed Wind Dir Waves Ship Positions

Sea Raven

More information available from US FCC via Universal Licensing System and Coast Guard Vessel Documentation Center.

Last reported at 2013-Nov-30 19:14 UTC. Time now 2014-Jul-28 18:34 UTC.
Position N 25°37' W 080°02'.
Warning: this ship's position is months out of date.

Length 169 m; draft 6.7 m.

Type: Ship (hazmat cat C). MMSI: 366760320.

Date/timePositionNaut miles runAvg speedWind from/ knotsBaromVisibWave heightAir tempDewpointWater temp
2013-Nov-30 19:14N 25°37' W 080°02'5 7.7
2013-Nov-30 18:33N 25°43' W 080°03'9 8.6
2013-Nov-30 17:34N 25°51' W 080°03'9 9.1
2013-Nov-30 16:33N 26°00' W 080°02'10 9.9
2013-Nov-30 15:33N 26°10' W 080°02'1010.4
2013-Nov-30 14:33N 26°21' W 080°02'9 9.2
2013-Nov-30 13:33N 26°30' W 080°01'9 8.7
2013-Nov-30 12:31N 26°39' W 079°59'  
2013-Nov-24 13:19N 32°04' W 080°58'4 0.3
2013-Nov-23 23:33N 32°05' W 081°03'  

Dump ship's entire track history